createdAt,value
2017-10-26T00:01:34.366Z,76.90
2017-10-26T00:04:01.140Z,76.00
2017-10-26T00:06:27.885Z,75.40
2017-10-26T00:08:55.453Z,75.10
2017-10-26T00:11:22.927Z,74.70
2017-10-26T00:13:49.684Z,75.10
2017-10-26T00:16:16.436Z,75.60
2017-10-26T00:18:43.180Z,75.70
2017-10-26T00:21:09.941Z,75.90
2017-10-26T00:23:37.445Z,76.80
2017-10-26T00:26:04.173Z,76.70
2017-10-26T00:28:30.916Z,76.80
2017-10-26T00:30:57.681Z,76.30
2017-10-26T00:33:24.432Z,76.30
2017-10-26T00:35:51.188Z,76.20
2017-10-26T00:38:17.926Z,76.20
2017-10-26T00:40:44.682Z,76.20
2017-10-26T00:43:12.210Z,75.90
2017-10-26T00:45:38.992Z,75.80
2017-10-26T00:48:06.500Z,76.20
2017-10-26T00:50:33.250Z,76.10
2017-10-26T00:53:00.021Z,76.30
2017-10-26T00:55:27.518Z,76.40
2017-10-26T00:57:54.264Z,76.20
2017-10-26T01:00:21.024Z,75.70
2017-10-26T01:02:47.753Z,75.60
2017-10-26T01:05:14.491Z,75.30
2017-10-26T01:07:41.247Z,75.40
2017-10-26T01:10:07.997Z,75.80
2017-10-26T01:12:34.734Z,76.00
2017-10-26T01:15:02.245Z,75.90
2017-10-26T01:17:28.992Z,75.80
2017-10-26T01:19:55.747Z,75.80
2017-10-26T01:22:22.668Z,75.40
2017-10-26T01:24:49.440Z,75.70
2017-10-26T01:27:16.187Z,75.70
2017-10-26T01:29:42.928Z,75.80
2017-10-26T01:32:10.434Z,76.20
2017-10-26T01:34:37.196Z,76.00
2017-10-26T01:37:03.936Z,76.30
2017-10-26T01:39:30.731Z,76.20
2017-10-26T01:41:57.486Z,76.20
2017-10-26T01:44:24.257Z,76.30
2017-10-26T01:46:51.015Z,76.40
2017-10-26T01:49:17.764Z,76.30
2017-10-26T01:51:45.266Z,76.40
2017-10-26T01:54:12.005Z,76.40
2017-10-26T01:56:38.759Z,76.40
2017-10-26T01:59:05.492Z,76.70
2017-10-26T02:01:32.250Z,76.80
2017-10-26T02:03:58.978Z,76.80
2017-10-26T02:06:25.716Z,76.60
2017-10-26T02:08:52.458Z,76.50
2017-10-26T02:11:19.192Z,76.40
2017-10-26T02:13:45.940Z,76.40
2017-10-26T02:16:13.441Z,77.50
2017-10-26T02:18:40.201Z,76.70
2017-10-26T02:21:06.972Z,76.60
2017-10-26T02:23:33.722Z,76.60
2017-10-26T02:26:00.472Z,76.60
2017-10-26T02:28:27.217Z,76.50
2017-10-26T02:30:54.729Z,76.30
2017-10-26T02:33:21.479Z,76.20
2017-10-26T02:35:48.268Z,76.20
2017-10-26T02:38:15.769Z,76.30
2017-10-26T02:40:42.515Z,77.00
2017-10-26T02:43:09.291Z,76.20
2017-10-26T02:45:37.019Z,76.50
2017-10-26T02:48:03.752Z,76.20
2017-10-26T02:50:30.509Z,76.30
2017-10-26T02:52:57.276Z,76.40
2017-10-26T02:55:24.808Z,76.30
2017-10-26T02:57:51.541Z,76.20
2017-10-26T03:00:18.267Z,76.30
2017-10-26T03:02:45.024Z,76.20
2017-10-26T03:05:11.759Z,75.90
2017-10-26T03:07:38.519Z,76.20
2017-10-26T03:10:06.108Z,76.70
2017-10-26T03:12:32.856Z,76.70
2017-10-26T03:14:59.589Z,77.20
2017-10-26T03:17:26.728Z,77.50
2017-10-26T03:19:53.464Z,76.90
2017-10-26T03:22:20.204Z,77.50
2017-10-26T03:24:46.953Z,77.00
2017-10-26T03:27:13.713Z,77.00
2017-10-26T03:29:40.457Z,77.60
2017-10-26T03:32:07.203Z,77.00
2017-10-26T03:34:33.953Z,77.00
2017-10-26T03:37:00.837Z,76.60
2017-10-26T03:39:27.575Z,78.70
2017-10-26T03:41:54.311Z,78.40
2017-10-26T03:44:21.836Z,78.90
2017-10-26T03:46:48.577Z,78.90
2017-10-26T03:49:15.311Z,77.20
2017-10-26T03:51:42.083Z,77.10
2017-10-26T03:54:09.596Z,77.10
2017-10-26T03:56:36.347Z,77.00
2017-10-26T03:59:03.244Z,77.50
2017-10-26T04:01:30.006Z,78.80
2017-10-26T04:03:56.760Z,77.60
2017-10-26T04:06:23.517Z,77.30
2017-10-26T04:08:51.778Z,77.50
2017-10-26T04:11:18.504Z,77.40
2017-10-26T04:13:45.235Z,77.50
2017-10-26T04:16:11.979Z,77.30
2017-10-26T04:18:38.732Z,76.90
2017-10-26T04:21:05.481Z,77.00
2017-10-26T04:23:32.256Z,77.20
2017-10-26T04:25:59.753Z,78.60
2017-10-26T04:28:26.488Z,78.60
2017-10-26T04:30:53.240Z,77.20
2017-10-26T04:33:19.979Z,76.90
2017-10-26T04:35:46.728Z,77.00
2017-10-26T04:38:13.479Z,77.30
2017-10-26T04:40:40.225Z,77.10
2017-10-26T04:43:07.860Z,77.40
2017-10-26T04:45:34.624Z,76.50
2017-10-26T04:48:02.208Z,76.90
2017-10-26T04:50:29.710Z,77.40
2017-10-26T04:52:56.488Z,76.50
2017-10-26T04:55:24.020Z,76.40
2017-10-26T04:57:50.757Z,76.40
2017-10-26T05:00:17.520Z,76.40
2017-10-26T05:02:45.012Z,76.50
2017-10-26T05:05:11.774Z,76.50
2017-10-26T05:07:38.516Z,77.10
2017-10-26T05:10:05.268Z,77.00
2017-10-26T05:12:32.025Z,77.50
2017-10-26T05:14:59.609Z,78.10
2017-10-26T05:17:27.104Z,77.00
2017-10-26T05:19:53.864Z,77.00
2017-10-26T05:22:20.789Z,76.50
2017-10-26T05:24:47.528Z,76.70
2017-10-26T05:27:14.283Z,77.00
2017-10-26T05:29:41.045Z,76.80
2017-10-26T05:32:08.544Z,77.10
2017-10-26T05:34:35.313Z,76.90
2017-10-26T05:37:02.041Z,76.80
2017-10-26T05:39:28.797Z,76.90
2017-10-26T05:41:56.304Z,77.30
2017-10-26T05:44:23.048Z,77.30
2017-10-26T05:46:49.812Z,77.00
2017-10-26T05:49:16.564Z,76.80
2017-10-26T05:51:43.323Z,76.80
2017-10-26T05:54:10.833Z,77.90
2017-10-26T05:56:37.584Z,77.10
2017-10-26T05:59:04.365Z,76.70
2017-10-26T06:01:31.866Z,76.90
2017-10-26T06:03:58.623Z,76.80
2017-10-26T06:06:25.376Z,77.00
2017-10-26T06:08:52.146Z,76.90
2017-10-26T06:11:19.644Z,77.00
2017-10-26T06:13:46.387Z,77.00
2017-10-26T06:16:13.151Z,77.30
2017-10-26T06:18:39.897Z,77.40
2017-10-26T06:21:06.666Z,77.40
2017-10-26T06:23:34.169Z,76.70
2017-10-26T06:26:00.910Z,76.70
2017-10-26T06:28:27.669Z,76.70
2017-10-26T06:30:55.179Z,77.50
2017-10-26T06:33:21.936Z,76.70
2017-10-26T06:35:48.692Z,77.50
2017-10-26T06:38:15.437Z,77.30
2017-10-26T06:40:42.168Z,77.00
2017-10-26T06:43:08.961Z,76.80
2017-10-26T06:45:36.439Z,77.00
2017-10-26T06:48:03.218Z,76.40
2017-10-26T06:50:29.946Z,76.80
2017-10-26T06:52:56.672Z,76.30
2017-10-26T06:55:23.440Z,76.00
2017-10-26T06:57:50.188Z,76.10
2017-10-26T07:00:17.705Z,76.90
2017-10-26T07:02:44.604Z,76.70
2017-10-26T07:05:12.173Z,76.00
2017-10-26T07:07:38.923Z,76.00
2017-10-26T07:10:05.656Z,76.40
2017-10-26T07:12:32.403Z,75.90
2017-10-26T07:14:59.152Z,75.90
2017-10-26T07:17:25.899Z,76.20
2017-10-26T07:19:52.652Z,77.10
2017-10-26T07:22:20.541Z,75.70
2017-10-26T07:24:47.274Z,75.90
2017-10-26T07:27:14.806Z,75.70
2017-10-26T07:29:41.552Z,75.70
2017-10-26T07:32:08.306Z,76.40
2017-10-26T07:34:35.068Z,75.00
2017-10-26T07:37:01.807Z,74.40
2017-10-26T07:39:29.494Z,74.20
2017-10-26T07:41:56.228Z,74.20
2017-10-26T07:44:23.224Z,74.50
2017-10-26T07:46:49.931Z,75.00
2017-10-26T07:49:16.700Z,74.60
2017-10-26T07:51:43.539Z,74.70
2017-10-26T07:54:10.284Z,74.30
2017-10-26T07:56:37.038Z,74.10
2017-10-26T07:59:03.771Z,74.10
2017-10-26T08:01:33.561Z,74.10
2017-10-26T08:04:00.328Z,74.60
2017-10-26T08:06:27.867Z,74.40
2017-10-26T08:08:54.610Z,74.40
2017-10-26T08:11:22.128Z,73.90
2017-10-26T08:13:48.945Z,73.90
2017-10-26T08:16:15.689Z,73.40
2017-10-26T08:18:42.440Z,73.60
2017-10-26T08:21:09.173Z,73.30
2017-10-26T08:23:35.922Z,73.00
2017-10-26T08:26:02.662Z,73.10
2017-10-26T08:28:29.404Z,72.90
2017-10-26T08:30:56.157Z,73.70
2017-10-26T08:33:22.921Z,73.10
2017-10-26T08:35:49.672Z,72.40
2017-10-26T08:38:17.177Z,71.80
2017-10-26T08:40:43.924Z,71.70
2017-10-26T08:43:10.672Z,71.80
2017-10-26T08:45:37.540Z,71.20
2017-10-26T08:48:04.276Z,70.20
2017-10-26T08:50:31.066Z,70.00
2017-10-26T08:52:57.812Z,69.50
2017-10-26T08:55:24.555Z,69.20
2017-10-26T08:57:51.313Z,68.50
2017-10-26T09:00:18.084Z,68.40
2017-10-26T09:02:45.585Z,67.50
2017-10-26T09:05:12.332Z,67.40
2017-10-26T09:07:39.075Z,67.20
2017-10-26T09:10:05.847Z,67.10
2017-10-26T09:12:32.594Z,67.20
2017-10-26T09:15:00.105Z,67.10
2017-10-26T09:17:26.866Z,66.30
2017-10-26T09:19:53.603Z,66.00
2017-10-26T09:22:20.372Z,65.90
2017-10-26T09:24:47.117Z,66.10
2017-10-26T09:27:14.612Z,65.90
2017-10-26T09:29:41.466Z,65.80
2017-10-26T09:32:08.215Z,65.80
2017-10-26T09:34:34.963Z,66.00
2017-10-26T09:37:01.750Z,65.30
2017-10-26T09:39:28.455Z,66.00
2017-10-26T09:41:55.186Z,65.60
2017-10-26T09:44:21.951Z,65.10
2017-10-26T09:46:50.505Z,64.80
2017-10-26T09:49:17.381Z,64.50
2017-10-26T09:51:44.145Z,64.30
2017-10-26T09:54:10.881Z,64.50
2017-10-26T09:56:37.624Z,64.40
2017-10-26T09:59:04.373Z,64.40
2017-10-26T10:01:31.123Z,64.20
2017-10-26T10:03:57.997Z,63.50
2017-10-26T10:06:24.741Z,64.20
2017-10-26T10:08:52.277Z,63.70
2017-10-26T10:11:19.016Z,63.70
2017-10-26T10:13:45.769Z,64.20
2017-10-26T10:16:13.296Z,65.40
2017-10-26T10:18:40.036Z,64.40
2017-10-26T10:21:06.788Z,63.60
2017-10-26T10:23:33.527Z,63.70
2017-10-26T10:26:00.325Z,63.40
2017-10-26T10:28:27.069Z,63.30
2017-10-26T10:30:53.844Z,62.80
2017-10-26T10:33:20.585Z,62.30
2017-10-26T10:35:47.325Z,62.60
2017-10-26T10:38:14.091Z,61.50
2017-10-26T10:40:41.616Z,60.50
2017-10-26T10:43:08.377Z,60.50
2017-10-26T10:45:35.156Z,60.90
2017-10-26T10:48:01.986Z,61.30
2017-10-26T10:50:28.716Z,60.70
2017-10-26T10:52:56.208Z,61.00
2017-10-26T10:55:22.977Z,61.00
2017-10-26T10:57:49.707Z,61.10
2017-10-26T11:00:16.444Z,61.20
2017-10-26T11:02:43.291Z,60.80
2017-10-26T11:05:10.069Z,60.20
2017-10-26T11:07:37.577Z,60.20
2017-10-26T11:10:04.344Z,60.10
2017-10-26T11:12:31.100Z,59.60
2017-10-26T11:14:58.617Z,58.70
2017-10-26T11:17:25.374Z,58.60
2017-10-26T11:19:52.881Z,58.30
2017-10-26T11:22:19.637Z,58.30
2017-10-26T11:24:46.391Z,58.90
2017-10-26T11:27:13.133Z,57.70
2017-10-26T11:29:39.884Z,58.30
2017-10-26T11:32:06.639Z,58.80
2017-10-26T11:34:33.398Z,58.30
2017-10-26T11:37:00.897Z,59.00
2017-10-26T11:39:27.636Z,58.90
2017-10-26T11:41:54.404Z,58.30
2017-10-26T11:44:21.916Z,58.40
2017-10-26T11:46:48.689Z,58.50
2017-10-26T11:49:15.430Z,58.70
2017-10-26T11:51:42.172Z,59.60
2017-10-26T11:54:08.928Z,59.60
2017-10-26T11:56:36.454Z,59.40
2017-10-26T11:59:03.202Z,59.40
2017-10-26T12:01:29.951Z,59.00
2017-10-26T12:03:58.234Z,58.80
2017-10-26T12:06:26.470Z,58.30
2017-10-26T12:08:53.231Z,58.30
2017-10-26T12:11:19.966Z,58.80
2017-10-26T12:13:46.807Z,58.40
2017-10-26T12:16:13.556Z,58.80
2017-10-26T12:18:40.324Z,59.00
2017-10-26T12:21:07.857Z,59.70
2017-10-26T12:23:34.641Z,59.70
2017-10-26T12:26:01.470Z,59.40
2017-10-26T12:28:28.964Z,58.80
2017-10-26T12:30:55.820Z,58.80
2017-10-26T12:33:22.676Z,58.30
2017-10-26T12:35:49.553Z,58.50
2017-10-26T12:38:16.277Z,59.00
2017-10-26T12:40:43.787Z,58.60
2017-10-26T12:43:10.545Z,58.50
2017-10-26T12:45:37.287Z,58.40
2017-10-26T12:48:04.020Z,58.30
2017-10-26T12:50:30.828Z,57.80
2017-10-26T12:52:57.644Z,56.90
2017-10-26T12:55:24.366Z,56.60
2017-10-26T12:57:52.616Z,56.40
2017-10-26T13:00:19.372Z,56.40
2017-10-26T13:02:46.888Z,56.70
2017-10-26T13:05:13.653Z,56.40
2017-10-26T13:07:40.384Z,56.30
2017-10-26T13:10:07.133Z,56.00
2017-10-26T13:12:33.873Z,57.00
2017-10-26T13:15:00.613Z,55.80
2017-10-26T13:17:28.135Z,55.90
2017-10-26T13:19:54.893Z,55.80
2017-10-26T13:22:21.647Z,56.10
2017-10-26T13:24:48.358Z,56.70
2017-10-26T13:27:15.105Z,55.60
2017-10-26T13:29:41.901Z,55.60
2017-10-26T13:32:08.608Z,55.00
2017-10-26T13:34:36.147Z,55.30
2017-10-26T13:37:02.879Z,55.20
2017-10-26T13:39:29.626Z,54.90
2017-10-26T13:41:56.364Z,54.30
2017-10-26T13:44:23.111Z,54.70
2017-10-26T13:46:50.667Z,55.60
2017-10-26T13:49:17.392Z,55.70
2017-10-26T13:51:44.145Z,55.70
2017-10-26T13:54:10.905Z,56.60
2017-10-26T13:56:38.467Z,56.60
2017-10-26T13:59:05.199Z,56.40
2017-10-26T14:01:31.934Z,55.20
2017-10-26T14:03:58.668Z,55.50
2017-10-26T14:06:25.421Z,55.50
2017-10-26T14:08:52.928Z,56.20
2017-10-26T14:11:19.692Z,56.10
2017-10-26T14:13:46.441Z,57.10
2017-10-26T14:16:13.180Z,57.00
2017-10-26T14:18:40.675Z,56.40
2017-10-26T14:21:07.447Z,56.40
2017-10-26T14:23:34.354Z,57.10
2017-10-26T14:26:01.056Z,57.00
2017-10-26T14:28:27.901Z,57.40
2017-10-26T14:30:54.641Z,57.80
2017-10-26T14:33:22.164Z,59.00
2017-10-26T14:35:48.932Z,58.30
2017-10-26T14:38:16.455Z,58.90
2017-10-26T14:40:43.192Z,58.80
2017-10-26T14:43:09.952Z,59.20
2017-10-26T14:45:36.743Z,59.50
2017-10-26T14:48:04.240Z,60.10
2017-10-26T14:50:30.999Z,60.00
2017-10-26T14:52:58.516Z,61.10
2017-10-26T14:55:25.291Z,61.20
2017-10-26T14:57:52.052Z,60.80
2017-10-26T15:00:19.588Z,60.90
2017-10-26T15:02:46.336Z,60.80
2017-10-26T15:05:13.112Z,60.80
2017-10-26T15:07:39.860Z,60.20
2017-10-26T15:10:06.596Z,60.30
2017-10-26T15:12:33.360Z,60.50
2017-10-26T15:15:00.086Z,60.40
2017-10-26T15:17:27.011Z,60.40
2017-10-26T15:19:54.512Z,61.00
2017-10-26T15:22:21.257Z,60.80
2017-10-26T15:24:48.041Z,61.50
2017-10-26T15:27:15.531Z,61.20
2017-10-26T15:29:42.264Z,61.90
2017-10-26T15:32:09.024Z,61.60
2017-10-26T15:34:35.769Z,62.10
2017-10-26T15:37:02.541Z,62.20
2017-10-26T15:39:30.063Z,63.00
2017-10-26T15:41:56.808Z,62.90
2017-10-26T15:44:23.570Z,62.90
2017-10-26T15:46:50.326Z,63.20
2017-10-26T15:49:17.831Z,64.30
2017-10-26T15:51:44.578Z,64.20
2017-10-26T15:54:11.326Z,64.30
2017-10-26T15:56:38.069Z,64.60
2017-10-26T15:59:04.796Z,65.20
2017-10-26T16:01:31.561Z,65.80
2017-10-26T16:03:59.072Z,66.20
2017-10-26T16:06:25.979Z,66.10
2017-10-26T16:08:52.738Z,66.20
2017-10-26T16:11:19.474Z,66.40
2017-10-26T16:13:46.240Z,67.00
2017-10-26T16:16:13.008Z,67.20
2017-10-26T16:18:40.516Z,67.60
2017-10-26T16:21:07.315Z,67.50
2017-10-26T16:23:34.831Z,68.40
2017-10-26T16:26:01.577Z,68.30
2017-10-26T16:28:28.354Z,68.70
2017-10-26T16:30:56.014Z,69.60
2017-10-26T16:33:23.749Z,70.00
2017-10-26T16:35:51.302Z,70.30
2017-10-26T16:38:18.057Z,70.30
2017-10-26T16:40:44.823Z,70.70
2017-10-26T16:43:12.343Z,70.60
2017-10-26T16:45:39.178Z,70.60
2017-10-26T16:48:05.952Z,70.60
2017-10-26T16:50:33.450Z,71.00
2017-10-26T16:53:00.205Z,70.90
2017-10-26T16:55:26.944Z,71.10
2017-10-26T16:57:53.756Z,71.30
2017-10-26T17:00:20.556Z,71.30
2017-10-26T17:02:47.306Z,71.30
2017-10-26T17:05:14.812Z,71.60
2017-10-26T17:07:41.611Z,71.50
2017-10-26T17:10:08.357Z,71.70
2017-10-26T17:12:35.313Z,72.00
2017-10-26T17:15:02.069Z,72.30
2017-10-26T17:17:28.856Z,72.40
2017-10-26T17:19:55.596Z,72.70
2017-10-26T17:22:23.110Z,72.90
2017-10-26T17:24:49.877Z,72.80
2017-10-26T17:27:16.615Z,73.40
2017-10-26T17:29:43.425Z,73.40
2017-10-26T17:32:10.171Z,74.10
2017-10-26T17:34:36.908Z,74.00
2017-10-26T17:37:03.689Z,73.90
2017-10-26T17:39:31.212Z,74.10
2017-10-26T17:41:57.947Z,74.10
2017-10-26T17:44:24.697Z,74.00
2017-10-26T17:46:51.428Z,74.60
2017-10-26T17:49:18.189Z,75.10
2017-10-26T17:51:44.930Z,75.00
2017-10-26T17:54:11.684Z,73.90
2017-10-26T17:56:39.201Z,73.70
2017-10-26T17:59:05.961Z,73.60
2017-10-26T18:01:32.741Z,74.00
2017-10-26T18:03:59.463Z,74.00
2017-10-26T18:06:27.038Z,74.00
2017-10-26T18:08:54.532Z,74.40
2017-10-26T18:11:21.312Z,74.30
2017-10-26T18:13:48.804Z,73.70
2017-10-26T18:16:15.592Z,73.70
2017-10-26T18:18:43.515Z,73.70
2017-10-26T18:21:10.575Z,73.60
2017-10-26T18:23:37.309Z,73.60
2017-10-26T18:26:04.344Z,73.50
2017-10-26T18:28:31.059Z,73.30
2017-10-26T18:30:57.840Z,74.00
2017-10-26T18:33:24.590Z,74.00
2017-10-26T18:35:51.344Z,74.70
2017-10-26T18:38:18.147Z,73.70
2017-10-26T18:40:44.885Z,74.70
2017-10-26T18:43:11.663Z,73.50
2017-10-26T18:45:39.181Z,73.20
2017-10-26T18:48:05.980Z,73.20
2017-10-26T18:50:32.744Z,73.10
2017-10-26T18:52:59.472Z,73.40
2017-10-26T18:55:26.237Z,73.70
2017-10-26T18:57:52.997Z,73.60
2017-10-26T19:00:19.784Z,73.60
2017-10-26T19:02:47.308Z,73.60
2017-10-26T19:05:14.980Z,73.60
2017-10-26T19:07:41.735Z,73.70
2017-10-26T19:10:09.253Z,73.90
2017-10-26T19:12:36.004Z,73.80
2017-10-26T19:15:02.757Z,74.00
2017-10-26T19:17:29.517Z,74.10
2017-10-26T19:19:56.272Z,74.50
2017-10-26T19:22:23.008Z,74.70
2017-10-26T19:24:49.772Z,74.40
2017-10-26T19:27:16.552Z,74.50
2017-10-26T19:29:43.318Z,75.30
2017-10-26T19:32:10.073Z,74.60
2017-10-26T19:34:36.980Z,75.00
2017-10-26T19:37:03.715Z,74.90
2017-10-26T19:39:31.972Z,74.90
2017-10-26T19:41:58.694Z,74.90
2017-10-26T19:44:25.457Z,74.80
2017-10-26T19:46:53.719Z,74.90
2017-10-26T19:49:20.472Z,74.90
2017-10-26T19:51:47.225Z,75.10
2017-10-26T19:54:14.703Z,75.30
2017-10-26T19:56:41.451Z,75.20
2017-10-26T19:59:08.198Z,75.20
2017-10-26T20:01:34.974Z,75.20
2017-10-26T20:04:01.715Z,75.40
2017-10-26T20:06:28.489Z,75.10
2017-10-26T20:08:56.030Z,75.10
2017-10-26T20:11:23.032Z,75.10
2017-10-26T20:13:49.772Z,74.60
2017-10-26T20:16:16.558Z,74.70
2017-10-26T20:18:44.094Z,74.30
2017-10-26T20:21:10.885Z,74.20
2017-10-26T20:23:37.869Z,72.50
2017-10-26T20:26:04.640Z,70.40
2017-10-26T20:28:32.165Z,70.30
2017-10-26T20:30:58.906Z,70.30
2017-10-26T20:33:25.656Z,69.80
2017-10-26T20:35:52.396Z,69.30
2017-10-26T20:38:19.141Z,68.90
2017-10-26T20:40:45.891Z,69.10
2017-10-26T20:43:13.410Z,70.00
2017-10-26T20:45:40.164Z,70.00
2017-10-26T20:48:06.917Z,69.80
2017-10-26T20:50:33.674Z,69.30
2017-10-26T20:53:01.193Z,69.50
2017-10-26T20:55:27.931Z,69.50
2017-10-26T20:57:54.688Z,69.50
2017-10-26T21:00:21.445Z,69.30
2017-10-26T21:02:50.820Z,68.70
2017-10-26T21:05:17.805Z,68.70
2017-10-26T21:07:45.292Z,69.00
2017-10-26T21:10:12.049Z,68.20
2017-10-26T21:12:38.839Z,68.40
2017-10-26T21:15:06.693Z,68.10
2017-10-26T21:17:34.206Z,68.10
2017-10-26T21:20:00.974Z,68.10
2017-10-26T21:22:27.708Z,67.60
2017-10-26T21:24:54.488Z,68.60
2017-10-26T21:27:22.084Z,69.10
2017-10-26T21:29:48.828Z,69.10
2017-10-26T21:32:16.365Z,68.90
2017-10-26T21:34:43.112Z,68.70
2017-10-26T21:37:09.866Z,70.40
2017-10-26T21:39:36.622Z,68.60
2017-10-26T21:42:03.377Z,68.60
2017-10-26T21:44:30.879Z,68.80
2017-10-26T21:46:57.644Z,68.80
2017-10-26T21:49:24.428Z,69.00
2017-10-26T21:51:51.929Z,69.50
2017-10-26T21:54:18.678Z,69.50
2017-10-26T21:56:45.433Z,69.70
2017-10-26T21:59:12.179Z,70.00
2017-10-26T22:01:38.908Z,69.60
2017-10-26T22:04:05.657Z,69.50
2017-10-26T22:06:32.448Z,70.60
2017-10-26T22:08:59.209Z,70.30
2017-10-26T22:11:25.960Z,70.60
2017-10-26T22:13:52.698Z,70.60
2017-10-26T22:16:19.476Z,71.30
2017-10-26T22:18:47.001Z,69.90
2017-10-26T22:21:13.747Z,69.80
2017-10-26T22:23:40.477Z,69.20
2017-10-26T22:26:07.216Z,69.60
2017-10-26T22:28:33.976Z,70.00
2017-10-26T22:31:01.471Z,70.50
2017-10-26T22:33:28.230Z,70.40
2017-10-26T22:35:54.984Z,69.70
2017-10-26T22:38:21.736Z,70.10
2017-10-26T22:40:49.982Z,69.50
2017-10-26T22:43:16.739Z,69.50
2017-10-26T22:45:43.469Z,69.50
2017-10-26T22:48:10.242Z,70.10
2017-10-26T22:50:37.747Z,69.50
2017-10-26T22:53:04.497Z,69.40
2017-10-26T22:55:31.252Z,70.40
2017-10-26T22:57:57.984Z,71.10
2017-10-26T23:00:24.754Z,70.30
2017-10-26T23:02:52.284Z,70.30
2017-10-26T23:05:19.043Z,70.20
2017-10-26T23:07:46.556Z,71.00
2017-10-26T23:10:13.300Z,71.00
2017-10-26T23:12:40.047Z,70.90
2017-10-26T23:15:06.840Z,71.10
2017-10-26T23:17:33.588Z,70.90
2017-10-26T23:20:00.329Z,71.00
2017-10-26T23:22:27.091Z,71.60
2017-10-26T23:24:53.840Z,71.40
2017-10-26T23:27:20.588Z,71.80
2017-10-26T23:29:47.481Z,71.40
2017-10-26T23:32:14.232Z,71.60
2017-10-26T23:34:40.981Z,71.70
2017-10-26T23:37:07.735Z,72.50
2017-10-26T23:39:34.473Z,72.10
2017-10-26T23:42:01.205Z,71.70
2017-10-26T23:44:28.210Z,72.00
2017-10-26T23:46:54.941Z,72.20
2017-10-26T23:49:22.455Z,73.90
2017-10-26T23:51:49.201Z,73.90
2017-10-26T23:54:15.945Z,72.50
2017-10-26T23:56:42.785Z,72.30
2017-10-26T23:59:09.521Z,72.00
